createdAt,value
2018-10-04T15:53:59.122Z,17.70
2018-10-04T15:54:59.092Z,17.59
2018-10-04T15:55:59.097Z,17.54
2018-10-04T15:56:59.080Z,17.54
2018-10-04T15:57:59.077Z,17.54
2018-10-04T15:58:59.069Z,17.57
2018-10-04T15:59:59.070Z,17.52
2018-10-04T16:00:59.060Z,17.52
2018-10-04T16:01:59.056Z,17.49
2018-10-04T16:02:59.054Z,17.51
2018-10-04T16:03:59.047Z,17.46
2018-10-04T16:04:59.045Z,17.46
2018-10-04T16:05:59.036Z,17.42
2018-10-04T16:06:59.033Z,17.46
2018-10-04T16:07:59.027Z,17.46
2018-10-04T16:08:59.023Z,17.41
2018-10-04T16:09:59.020Z,17.44
2018-10-04T16:10:59.017Z,17.44
2018-10-04T16:11:59.010Z,17.44
2018-10-04T16:12:59.008Z,17.45
2018-10-04T16:13:59.002Z,17.44
2018-10-04T16:14:59.000Z,17.49
2018-10-04T16:15:58.993Z,17.44
2018-10-04T16:16:58.986Z,17.42
2018-10-04T16:17:58.993Z,17.44
2018-10-04T16:18:59.007Z,17.39
2018-10-04T16:19:58.980Z,17.44
2018-10-04T16:20:58.967Z,17.44
2018-10-04T16:21:58.969Z,17.24
2018-10-04T16:22:58.959Z,17.33
2018-10-04T16:23:58.957Z,17.22
2018-10-04T16:24:58.955Z,17.23
2018-10-04T16:25:58.954Z,17.27
2018-10-04T16:26:58.950Z,17.20
2018-10-04T16:27:58.938Z,17.06
2018-10-04T16:28:58.933Z,17.16
2018-10-04T16:29:58.931Z,17.15
2018-10-04T16:30:58.937Z,17.14
2018-10-04T16:31:58.923Z,17.14
2018-10-04T16:32:58.921Z,17.09
2018-10-04T16:33:58.938Z,17.15
2018-10-04T16:34:58.905Z,17.16
2018-10-04T16:35:58.900Z,16.97
2018-10-04T16:36:58.900Z,16.99
2018-10-04T16:37:58.897Z,17.04
2018-10-04T16:38:58.896Z,16.94
2018-10-04T16:39:58.888Z,17.05
2018-10-04T16:40:58.897Z,16.99
2018-10-04T16:41:58.874Z,17.04
2018-10-04T16:42:58.870Z,16.99
2018-10-04T16:43:58.867Z,16.99
2018-10-04T16:44:58.862Z,17.01
2018-10-04T16:45:58.860Z,17.04
2018-10-04T16:46:58.856Z,16.99
2018-10-04T16:47:58.850Z,16.91
2018-10-04T16:48:58.846Z,16.99
2018-10-04T16:49:58.846Z,16.87
2018-10-04T16:50:58.836Z,16.94
2018-10-04T16:51:58.832Z,16.96
2018-10-04T16:52:58.827Z,16.93
2018-10-04T16:53:58.821Z,16.79
2018-10-04T16:54:58.840Z,16.87
2018-10-04T16:55:58.813Z,16.86
2018-10-04T16:56:58.808Z,16.90
2018-10-04T16:57:58.806Z,16.86
2018-10-04T16:58:58.803Z,16.83
2018-10-04T16:59:58.796Z,16.83
2018-10-04T17:00:58.792Z,16.86
2018-10-04T17:01:58.781Z,16.74
2018-10-04T17:02:58.811Z,16.69
2018-10-04T17:03:58.774Z,16.71
2018-10-04T17:04:58.770Z,16.71
2018-10-04T17:05:58.769Z,16.71
2018-10-04T17:06:58.763Z,16.72
2018-10-04T17:07:58.764Z,16.71
2018-10-04T17:08:58.754Z,16.72
2018-10-04T17:09:58.748Z,16.76
2018-10-04T17:10:58.742Z,16.71
2018-10-04T17:11:58.736Z,16.64
2018-10-04T17:12:58.735Z,16.64
2018-10-04T17:13:58.731Z,16.66
2018-10-04T17:14:58.760Z,16.66
2018-10-04T17:15:58.721Z,16.65
2018-10-04T17:16:58.714Z,16.56
2018-10-04T17:17:58.708Z,16.66
2018-10-04T17:18:58.717Z,16.58
2018-10-04T17:19:58.703Z,16.57
2018-10-04T17:20:58.697Z,16.57
2018-10-04T17:21:58.696Z,16.49
2018-10-04T17:22:58.687Z,16.56
2018-10-04T17:23:58.687Z,16.47
2018-10-04T17:24:58.675Z,16.47
2018-10-04T17:25:58.668Z,16.46
2018-10-04T17:26:58.669Z,16.46
2018-10-04T17:27:58.667Z,16.50
2018-10-04T17:28:58.657Z,16.39
2018-10-04T17:29:58.654Z,16.42
2018-10-04T17:30:58.648Z,16.35
2018-10-04T17:31:58.641Z,16.31
2018-10-04T17:32:58.654Z,16.33
2018-10-04T17:33:58.634Z,16.28
2018-10-04T17:34:58.628Z,16.31
2018-10-04T17:35:58.627Z,16.32
2018-10-04T17:36:58.618Z,16.32
2018-10-04T17:37:58.616Z,16.31
2018-10-04T17:38:58.604Z,16.28
2018-10-04T17:39:58.606Z,16.21
2018-10-04T17:40:58.605Z,16.21
2018-10-04T17:41:58.598Z,16.24
2018-10-04T17:42:58.589Z,16.24
2018-10-04T17:43:58.605Z,16.21
2018-10-04T17:44:58.579Z,16.23
2018-10-04T17:45:58.572Z,16.23
2018-10-04T17:46:58.566Z,16.15
2018-10-04T17:47:58.660Z,16.23
2018-10-04T17:48:58.561Z,16.15
2018-10-04T17:49:58.558Z,16.23
2018-10-04T17:50:58.552Z,16.17
2018-10-04T17:51:58.547Z,16.09
2018-10-04T17:52:58.538Z,16.09
2018-10-04T17:53:58.561Z,16.02
2018-10-04T17:54:58.527Z,16.04
2018-10-04T17:55:58.561Z,16.08
2018-10-04T17:56:58.522Z,16.04
2018-10-04T17:57:58.515Z,16.13
2018-10-04T17:58:58.512Z,16.04
2018-10-04T17:59:58.503Z,16.08
2018-10-04T18:00:58.503Z,16.09
2018-10-04T18:01:58.492Z,15.95
2018-10-04T18:02:58.503Z,16.01
2018-10-04T18:03:58.490Z,15.94
2018-10-04T18:04:58.478Z,16.01
2018-10-04T18:05:58.472Z,15.92
2018-10-04T18:06:58.467Z,15.92
2018-10-04T18:07:58.463Z,15.91
2018-10-04T18:08:58.456Z,15.88
2018-10-04T18:09:58.452Z,15.86
2018-10-04T18:10:58.523Z,15.79
2018-10-04T18:11:58.443Z,15.83
2018-10-04T18:12:58.436Z,15.70
2018-10-04T18:13:58.428Z,15.76
2018-10-04T18:14:58.426Z,15.73
2018-10-04T18:15:58.424Z,15.72
2018-10-04T18:16:58.420Z,15.65
2018-10-04T18:17:58.412Z,15.67
2018-10-04T18:18:58.409Z,15.59
2018-10-04T18:19:58.401Z,15.61
2018-10-04T18:20:58.392Z,15.55
2018-10-04T18:21:58.399Z,15.58
2018-10-04T18:22:58.382Z,15.52
2018-10-04T18:23:58.413Z,15.49
2018-10-04T18:24:58.377Z,15.39
2018-10-04T18:25:58.368Z,15.36
2018-10-04T18:26:58.369Z,15.36
2018-10-04T18:27:58.355Z,15.42
2018-10-04T18:28:58.351Z,15.42
2018-10-04T18:29:58.347Z,15.37
2018-10-04T18:30:58.341Z,15.28
2018-10-04T18:31:58.338Z,15.35
2018-10-04T18:32:58.336Z,15.37
2018-10-04T18:33:58.334Z,15.33
2018-10-04T18:34:58.326Z,15.22
2018-10-04T18:35:58.311Z,15.21
2018-10-04T18:36:58.307Z,15.24
2018-10-04T18:37:58.302Z,15.24
2018-10-04T18:38:58.417Z,15.19
2018-10-04T18:39:58.293Z,15.18
2018-10-04T18:40:58.290Z,15.17
2018-10-04T18:41:58.283Z,15.06
2018-10-04T18:42:58.277Z,15.11
2018-10-04T18:43:58.279Z,15.04
2018-10-04T18:44:58.264Z,15.06
2018-10-04T18:45:58.256Z,15.03
2018-10-04T18:46:58.256Z,15.07
2018-10-04T18:47:58.247Z,15.03
2018-10-04T18:48:58.243Z,15.07
2018-10-04T18:49:58.237Z,14.91
2018-10-04T18:50:58.232Z,14.96
2018-10-04T18:51:58.222Z,14.92
2018-10-04T18:52:58.222Z,14.92
2018-10-04T18:53:58.213Z,15.00
2018-10-04T18:54:58.207Z,15.00
2018-10-04T18:55:58.204Z,14.92
2018-10-04T18:56:58.194Z,14.89
2018-10-04T18:57:58.187Z,14.85
2018-10-04T18:58:58.194Z,14.78
2018-10-04T18:59:58.248Z,14.84
2018-10-04T19:00:58.172Z,14.84
2018-10-04T19:01:58.169Z,14.73
2018-10-04T19:02:58.161Z,14.82
2018-10-04T19:03:58.159Z,14.72
2018-10-04T19:04:58.156Z,14.70
2018-10-04T19:05:58.150Z,14.72
2018-10-04T19:06:58.139Z,14.66
2018-10-04T19:07:58.134Z,14.66
2018-10-04T19:08:58.127Z,14.68
2018-10-04T19:09:58.122Z,14.66
2018-10-04T19:10:58.114Z,14.62
2018-10-04T19:11:58.110Z,14.65
2018-10-04T19:12:58.104Z,14.65
2018-10-04T19:13:58.094Z,14.66
2018-10-04T19:14:58.093Z,14.53
2018-10-04T19:15:58.092Z,14.55
2018-10-04T19:16:58.097Z,14.53
2018-10-04T19:17:58.073Z,14.59
2018-10-04T19:18:58.108Z,14.53
2018-10-04T19:19:58.072Z,14.45
2018-10-04T19:20:58.057Z,14.58
2018-10-04T19:21:58.054Z,14.48
2018-10-04T19:22:58.047Z,14.50
2018-10-04T19:23:58.054Z,14.48
2018-10-04T19:24:58.035Z,14.41
2018-10-04T19:25:58.025Z,14.36
2018-10-04T19:26:58.022Z,14.44
2018-10-04T19:27:58.017Z,14.37
2018-10-04T19:28:58.034Z,14.35
2018-10-04T19:29:58.004Z,14.36
2018-10-04T19:30:57.997Z,14.26
2018-10-04T19:31:57.996Z,14.26
2018-10-04T19:32:57.981Z,14.32
2018-10-04T19:33:57.975Z,14.29
2018-10-04T19:34:57.969Z,14.32
2018-10-04T19:35:57.972Z,14.12
2018-10-04T19:36:57.959Z,14.26
2018-10-04T19:37:57.960Z,14.15
2018-10-04T19:38:57.947Z,14.20
2018-10-04T19:39:57.944Z,14.20
2018-10-04T19:40:57.942Z,14.18
2018-10-04T19:41:57.935Z,14.14
2018-10-04T19:42:57.927Z,14.17
2018-10-04T19:43:57.922Z,14.15
2018-10-04T19:44:57.915Z,14.18
2018-10-04T19:45:57.903Z,14.07
2018-10-04T19:46:57.979Z,14.05
2018-10-04T19:47:57.894Z,14.05
2018-10-04T19:48:57.890Z,14.12
2018-10-04T19:49:57.883Z,14.04
2018-10-04T19:50:57.875Z,13.97
2018-10-04T19:51:57.870Z,13.96
2018-10-04T19:52:57.867Z,13.90
2018-10-04T19:53:57.859Z,13.99
2018-10-04T19:54:57.850Z,13.93
2018-10-04T19:55:57.842Z,13.96
2018-10-04T19:56:57.841Z,14.00
2018-10-04T19:57:57.867Z,13.95
2018-10-04T19:58:57.825Z,13.90
2018-10-04T19:59:57.847Z,13.89
2018-10-04T20:00:57.814Z,13.90
2018-10-04T20:01:57.806Z,13.85
2018-10-04T20:02:57.801Z,13.90
2018-10-04T20:03:57.854Z,13.90
2018-10-04T20:04:57.787Z,13.92
2018-10-04T20:05:57.782Z,13.79
2018-10-04T20:06:57.774Z,13.79
2018-10-04T20:07:57.769Z,13.81
2018-10-04T20:08:57.760Z,13.83
2018-10-04T20:09:57.761Z,13.79
2018-10-04T20:10:57.756Z,13.77
2018-10-04T20:11:57.748Z,13.78
2018-10-04T20:12:57.738Z,13.75
2018-10-04T20:13:57.733Z,13.75
2018-10-04T20:14:57.735Z,13.77
2018-10-04T20:15:57.738Z,13.78
2018-10-04T20:16:57.713Z,13.74
2018-10-04T20:17:57.708Z,13.72
2018-10-04T20:18:57.703Z,13.74
2018-10-04T20:19:57.697Z,13.70
2018-10-04T20:20:57.687Z,13.67
2018-10-04T20:21:57.681Z,13.63
2018-10-04T20:22:57.673Z,13.60
2018-10-04T20:23:57.673Z,13.65
2018-10-04T20:24:57.665Z,13.53
2018-10-04T20:25:57.663Z,13.50
2018-10-04T20:26:57.655Z,13.65
2018-10-04T20:27:57.666Z,13.57
2018-10-04T20:28:57.637Z,13.56
2018-10-04T20:29:57.630Z,13.54
2018-10-04T20:30:57.623Z,13.50
2018-10-04T20:31:57.617Z,13.42
2018-10-04T20:32:57.615Z,13.49
2018-10-04T20:33:57.614Z,13.49
2018-10-04T20:34:57.654Z,13.38
2018-10-04T20:35:57.592Z,13.41
2018-10-04T20:36:57.588Z,13.47
2018-10-04T20:37:57.579Z,13.39
2018-10-04T20:38:57.577Z,13.35
2018-10-04T20:39:57.571Z,13.39
2018-10-04T20:40:57.565Z,13.33
2018-10-04T20:41:57.559Z,13.38
2018-10-04T20:42:57.546Z,13.27
2018-10-04T20:43:57.584Z,13.37
2018-10-04T20:44:57.535Z,13.27
2018-10-04T20:45:57.535Z,13.35
2018-10-04T20:46:57.527Z,13.35
2018-10-04T20:47:57.520Z,13.31
2018-10-04T20:48:57.513Z,13.25
2018-10-04T20:49:57.503Z,13.25
2018-10-04T20:50:57.496Z,13.23
2018-10-04T20:51:57.493Z,13.28
2018-10-04T20:52:57.492Z,13.18
2018-10-04T20:53:57.489Z,13.19
2018-10-04T20:54:57.475Z,13.20
2018-10-04T20:55:57.556Z,13.13
2018-10-04T20:56:57.458Z,13.18
2018-10-04T20:57:57.449Z,13.13
2018-10-04T20:58:57.484Z,13.16
2018-10-04T20:59:57.439Z,13.08
2018-10-04T21:00:57.431Z,13.08
2018-10-04T21:01:57.429Z,13.09
2018-10-04T21:02:57.422Z,13.04
2018-10-04T21:03:57.413Z,13.11
2018-10-04T21:04:57.405Z,13.12
2018-10-04T21:05:57.440Z,13.08
2018-10-04T21:06:57.389Z,13.09
2018-10-04T21:07:57.389Z,13.09
2018-10-04T21:08:57.378Z,13.01
2018-10-04T21:09:57.388Z,13.01
2018-10-04T21:10:57.369Z,13.01
2018-10-04T21:11:57.359Z,13.01
2018-10-04T21:12:57.354Z,13.01
2018-10-04T21:13:57.353Z,13.01
2018-10-04T21:14:57.342Z,13.03
2018-10-04T21:15:57.339Z,13.00
2018-10-04T21:16:57.333Z,13.05
2018-10-04T21:17:57.323Z,12.98
2018-10-04T21:18:57.311Z,13.03
2018-10-04T21:19:57.306Z,13.00
2018-10-04T21:20:57.301Z,13.01
2018-10-04T21:21:57.295Z,12.97
2018-10-04T21:22:57.313Z,12.98
2018-10-04T21:23:57.284Z,12.98
2018-10-04T21:24:57.273Z,12.87
2018-10-04T21:25:57.268Z,12.94
2018-10-04T21:26:57.261Z,12.93
2018-10-04T21:27:57.254Z,12.87
2018-10-04T21:28:57.251Z,12.91
2018-10-04T21:29:57.271Z,12.93
2018-10-04T21:30:57.238Z,12.91
2018-10-04T21:31:57.225Z,12.90
2018-10-04T21:32:57.220Z,12.86
2018-10-04T21:33:57.222Z,12.87
2018-10-04T21:34:57.209Z,12.93
2018-10-04T21:35:57.206Z,12.91
2018-10-04T21:36:57.199Z,12.86
2018-10-04T21:37:57.188Z,12.93
2018-10-04T21:38:57.183Z,12.86
2018-10-04T21:39:57.175Z,12.85
2018-10-04T21:40:57.169Z,12.87
2018-10-04T21:41:57.165Z,12.82
2018-10-04T21:42:57.157Z,12.79
2018-10-04T21:43:57.149Z,12.79
2018-10-04T21:44:57.146Z,12.87
2018-10-04T21:45:57.142Z,12.76
2018-10-04T21:46:57.129Z,12.82
2018-10-04T21:47:57.121Z,12.75
2018-10-04T21:48:57.114Z,12.73
2018-10-04T21:49:57.109Z,12.80
2018-10-04T21:50:57.103Z,12.72
2018-10-04T21:51:57.096Z,12.68
2018-10-04T21:52:57.090Z,12.67
2018-10-04T21:53:57.136Z,12.73
2018-10-04T21:54:57.071Z,12.67
2018-10-04T21:55:57.066Z,12.72
2018-10-04T21:56:57.065Z,12.64
2018-10-04T21:57:57.053Z,12.65
2018-10-04T21:58:57.052Z,12.61
2018-10-04T21:59:57.046Z,12.62
2018-10-04T22:00:57.037Z,12.58
2018-10-04T22:01:57.025Z,12.58
2018-10-04T22:02:57.019Z,12.53
2018-10-04T22:03:57.011Z,12.43
2018-10-04T22:04:57.010Z,12.47
2018-10-04T22:05:57.003Z,12.42
2018-10-04T22:06:56.991Z,12.50
2018-10-04T22:07:56.987Z,12.46
2018-10-04T22:08:56.976Z,12.42
2018-10-04T22:09:56.984Z,12.42
2018-10-04T22:10:56.972Z,12.40
2018-10-04T22:11:56.966Z,12.35
2018-10-04T22:12:56.956Z,12.37
2018-10-04T22:13:56.945Z,12.42
2018-10-04T22:14:56.938Z,12.37
2018-10-04T22:15:56.933Z,12.39
2018-10-04T22:16:56.938Z,12.31
2018-10-04T22:17:56.918Z,12.39
2018-10-04T22:18:56.913Z,12.37
2018-10-04T22:19:56.916Z,12.36
2018-10-04T22:20:56.909Z,12.27
2018-10-04T22:21:56.893Z,12.31
2018-10-04T22:22:56.883Z,12.31
2018-10-04T22:23:56.878Z,12.31
2018-10-04T22:24:56.868Z,12.31
2018-10-04T22:25:56.867Z,12.25
2018-10-04T22:26:56.859Z,12.25
2018-10-04T22:27:56.852Z,12.18
2018-10-04T22:28:56.844Z,12.18
2018-10-04T22:29:56.842Z,12.22
2018-10-04T22:30:56.828Z,12.18
2018-10-04T22:31:56.823Z,12.13
2018-10-04T22:32:56.815Z,12.13
2018-10-04T22:33:56.809Z,12.13
2018-10-04T22:34:56.803Z,12.04
2018-10-04T22:35:56.793Z,12.13
2018-10-04T22:36:56.788Z,12.06
2018-10-04T22:37:56.777Z,12.02
2018-10-04T22:38:56.771Z,12.07
2018-10-04T22:39:56.768Z,12.04
2018-10-04T22:40:56.758Z,12.03
2018-10-04T22:41:56.753Z,12.03
2018-10-04T22:42:56.752Z,12.00
2018-10-04T22:43:56.738Z,11.95
2018-10-04T22:44:56.743Z,11.99
2018-10-04T22:45:56.720Z,11.95
2018-10-04T22:46:56.713Z,12.00
2018-10-04T22:47:56.712Z,12.00
2018-10-04T22:48:56.706Z,11.95
2018-10-04T22:49:56.695Z,11.94
2018-10-04T22:50:56.691Z,11.94
2018-10-04T22:51:56.680Z,11.95
2018-10-04T22:52:56.673Z,11.91
2018-10-04T22:53:56.670Z,11.94
2018-10-04T22:54:56.661Z,11.94
2018-10-04T22:55:56.660Z,11.90
2018-10-04T22:56:56.678Z,11.81
2018-10-04T22:57:56.666Z,11.91
2018-10-04T22:58:56.634Z,11.80
2018-10-04T22:59:56.641Z,11.94
2018-10-04T23:00:56.618Z,11.87
2018-10-04T23:01:56.613Z,11.86
2018-10-04T23:02:56.606Z,11.86
2018-10-04T23:03:56.605Z,11.83
2018-10-04T23:04:56.591Z,11.83
2018-10-04T23:05:56.584Z,11.87
2018-10-04T23:06:56.574Z,11.80
2018-10-04T23:07:56.565Z,11.80
2018-10-04T23:08:56.561Z,11.73
2018-10-04T23:09:56.556Z,11.83
2018-10-04T23:10:56.551Z,11.77
2018-10-04T23:11:56.540Z,11.73
2018-10-04T23:12:56.530Z,11.80
2018-10-04T23:13:56.525Z,11.77
2018-10-04T23:14:56.515Z,11.75
2018-10-04T23:15:56.513Z,11.70
2018-10-04T23:16:56.503Z,11.72
2018-10-04T23:17:56.500Z,11.69
2018-10-04T23:18:56.490Z,11.72
2018-10-04T23:19:56.486Z,11.75
2018-10-04T23:20:56.480Z,11.72
2018-10-04T23:21:56.467Z,11.69
2018-10-04T23:22:56.459Z,11.70
2018-10-04T23:23:56.452Z,11.65
2018-10-04T23:24:56.458Z,11.59
2018-10-04T23:25:56.443Z,11.54
2018-10-04T23:26:56.441Z,11.65
2018-10-04T23:27:56.424Z,11.63
2018-10-04T23:28:56.421Z,11.59
2018-10-04T23:29:56.409Z,11.62
2018-10-04T23:30:56.406Z,11.63
2018-10-04T23:31:56.427Z,11.52
2018-10-04T23:32:56.393Z,11.62
2018-10-04T23:33:56.379Z,11.59
2018-10-04T23:34:56.371Z,11.55
2018-10-04T23:35:56.373Z,11.47
2018-10-04T23:36:56.371Z,11.50
2018-10-04T23:37:56.355Z,11.50
2018-10-04T23:38:56.347Z,11.51
2018-10-04T23:39:56.342Z,11.44
2018-10-04T23:40:56.329Z,11.47
2018-10-04T23:41:56.326Z,11.44
2018-10-04T23:42:56.315Z,11.47
2018-10-04T23:43:56.308Z,11.41
2018-10-04T23:44:56.305Z,11.33
2018-10-04T23:45:56.301Z,11.40
2018-10-04T23:46:56.290Z,11.43
2018-10-04T23:47:56.280Z,11.22
2018-10-04T23:48:56.273Z,11.37
2018-10-04T23:49:56.270Z,11.45
2018-10-04T23:50:56.258Z,11.37
2018-10-04T23:51:56.255Z,11.40
2018-10-04T23:52:56.251Z,11.44
2018-10-04T23:53:56.239Z,11.44
2018-10-04T23:54:56.233Z,11.43
2018-10-04T23:55:56.224Z,11.27
2018-10-04T23:56:56.219Z,11.32
2018-10-04T23:57:56.210Z,11.32
2018-10-04T23:58:56.201Z,11.22
2018-10-04T23:59:56.196Z,11.14
